createdAt,value
2018-03-17T00:01:52.591Z,97979.82
2018-03-17T00:04:26.094Z,97975.02
2018-03-17T00:06:59.690Z,97979.82
2018-03-17T00:09:33.285Z,97984.89
2018-03-17T00:12:06.914Z,97985.03
2018-03-17T00:14:40.603Z,97974.62
2018-03-17T00:17:14.264Z,97968.21
2018-03-17T00:19:47.984Z,97962.97
2018-03-17T00:22:21.711Z,97966.17
2018-03-17T00:24:55.433Z,97966.97
2018-03-17T00:27:29.182Z,97967.23
2018-03-17T00:30:02.839Z,97964.97
2018-03-17T00:32:36.427Z,97961.49
2018-03-17T00:35:10.034Z,97964.81
2018-03-17T00:37:44.075Z,97965.57
2018-03-17T00:40:17.755Z,97970.10
2018-03-17T00:42:51.303Z,97962.09
2018-03-17T00:45:24.986Z,97962.62
2018-03-17T00:47:58.995Z,97968.23
2018-03-17T00:50:32.516Z,97963.69
2018-03-17T00:53:06.112Z,97966.75
2018-03-17T00:55:39.686Z,97974.62
2018-03-17T00:58:13.232Z,97970.61
2018-03-17T01:00:46.902Z,97971.66
2018-03-17T01:03:20.619Z,97977.95
2018-03-17T01:05:54.170Z,97977.41
2018-03-17T01:08:27.809Z,97970.88
2018-03-17T01:11:01.487Z,97975.41
2018-03-17T01:13:35.005Z,97973.53
2018-03-17T01:16:08.678Z,97979.00
2018-03-17T01:18:42.375Z,97975.15
2018-03-17T01:21:15.983Z,97962.34
2018-03-17T01:23:49.734Z,97961.80
2018-03-17T01:26:23.367Z,97961.93
2018-03-17T01:28:57.099Z,97956.33
2018-03-17T01:31:30.816Z,97956.59
2018-03-17T01:34:04.354Z,97964.45
2018-03-17T01:36:38.151Z,97960.04
2018-03-17T01:39:11.865Z,97966.58
2018-03-17T01:41:45.671Z,97967.12
2018-03-17T01:44:19.383Z,97975.64
2018-03-17T01:46:53.098Z,97970.80
2018-03-17T01:49:26.721Z,97973.84
2018-03-17T01:52:00.323Z,97963.84
2018-03-17T01:54:33.981Z,97969.45
2018-03-17T01:57:07.710Z,97956.39
2018-03-17T01:59:41.338Z,97954.22
2018-03-17T02:02:14.881Z,97946.36
2018-03-17T02:04:48.525Z,97943.57
2018-03-17T02:07:22.205Z,97932.62
2018-03-17T02:09:55.931Z,97935.14
2018-03-17T02:12:29.592Z,97933.93
2018-03-17T02:15:03.138Z,97936.87
2018-03-17T02:17:36.724Z,97938.94
2018-03-17T02:20:10.434Z,97939.39
2018-03-17T02:22:44.173Z,97938.98
2018-03-17T02:25:17.933Z,97939.19
2018-03-17T02:27:51.490Z,97934.00
2018-03-17T02:30:25.173Z,97934.00
2018-03-17T02:32:58.747Z,97941.03
2018-03-17T02:35:32.424Z,97944.48
2018-03-17T02:38:06.157Z,97940.07
2018-03-17T02:40:39.741Z,97943.92
2018-03-17T02:43:13.293Z,97942.30
2018-03-17T02:45:46.969Z,97953.89
2018-03-17T02:48:20.536Z,97949.73
2018-03-17T02:50:54.141Z,97957.34
2018-03-17T02:53:27.731Z,97953.53
2018-03-17T02:56:01.337Z,97952.08
2018-03-17T02:58:34.960Z,97955.64
2018-03-17T03:01:08.706Z,97950.86
2018-03-17T03:03:42.462Z,97942.98
2018-03-17T03:06:16.010Z,97940.82
2018-03-17T03:08:49.714Z,97948.03
2018-03-17T03:11:23.282Z,97947.77
2018-03-17T03:13:57.007Z,97949.45
2018-03-17T03:16:30.778Z,97937.21
2018-03-17T03:19:04.330Z,97939.36
2018-03-17T03:21:38.090Z,97949.58
2018-03-17T03:24:11.875Z,97938.78
2018-03-17T03:26:45.625Z,97946.76
2018-03-17T03:29:19.257Z,97946.23
2018-03-17T03:31:52.838Z,97951.28
2018-03-17T03:34:26.466Z,97943.81
2018-03-17T03:37:00.030Z,97944.95
2018-03-17T03:39:33.678Z,97938.35
2018-03-17T03:42:07.421Z,97931.11
2018-03-17T03:44:41.222Z,97929.92
2018-03-17T03:47:14.951Z,97927.75
2018-03-17T03:49:48.722Z,97931.45
2018-03-17T03:52:22.293Z,97933.61
2018-03-17T03:54:55.837Z,97934.95
2018-03-17T03:57:29.606Z,97936.81
2018-03-17T04:00:03.165Z,97943.45
2018-03-17T04:02:36.850Z,97938.15
2018-03-17T04:05:10.558Z,97946.27
2018-03-17T04:07:44.162Z,97948.38
2018-03-17T04:10:17.915Z,97936.67
2018-03-17T04:12:51.606Z,97935.87
2018-03-17T04:15:25.438Z,97930.02
2018-03-17T04:17:59.198Z,97943.55
2018-03-17T04:20:32.804Z,97944.00
2018-03-17T04:23:06.386Z,97935.70
2018-03-17T04:25:39.970Z,97942.38
2018-03-17T04:28:13.522Z,97938.66
2018-03-17T04:30:47.077Z,97928.56
2018-03-17T04:33:20.848Z,97932.30
2018-03-17T04:35:54.361Z,97938.84
2018-03-17T04:38:28.070Z,97929.22
2018-03-17T04:41:01.842Z,97934.80
2018-03-17T04:43:35.557Z,97941.14
2018-03-17T04:46:09.161Z,97948.97
2018-03-17T04:48:42.917Z,97948.97
2018-03-17T04:51:16.565Z,97959.19
2018-03-17T04:53:50.138Z,97956.77
2018-03-17T04:56:23.914Z,97964.75
2018-03-17T04:58:57.596Z,97950.75
2018-03-17T05:01:31.186Z,97950.98
2018-03-17T05:04:04.982Z,97943.19
2018-03-17T05:07:02.958Z,97940.15
2018-03-17T05:09:36.612Z,97934.70
2018-03-17T05:12:10.321Z,97928.30
2018-03-17T05:14:43.881Z,97929.70
2018-03-17T05:17:17.504Z,97939.54
2018-03-17T05:19:51.073Z,97940.38
2018-03-17T05:22:24.849Z,97937.16
2018-03-17T05:24:58.554Z,97937.48
2018-03-17T05:27:32.282Z,97930.14
2018-03-17T05:30:05.997Z,97924.30
2018-03-17T05:32:39.574Z,97916.95
2018-03-17T05:35:13.206Z,97910.84
2018-03-17T05:37:46.988Z,97913.50
2018-03-17T05:40:20.649Z,97910.55
2018-03-17T05:42:54.269Z,97917.64
2018-03-17T05:45:28.009Z,97920.52
2018-03-17T05:48:01.779Z,97926.34
2018-03-17T05:50:35.590Z,97929.87
2018-03-17T05:53:09.389Z,97921.08
2018-03-17T05:55:43.006Z,97920.94
2018-03-17T05:58:16.752Z,97916.82
2018-03-17T06:00:50.381Z,97915.34
2018-03-17T06:03:23.920Z,97921.34
2018-03-17T06:05:57.650Z,97926.47
2018-03-17T06:08:31.409Z,97934.05
2018-03-17T06:11:05.082Z,97926.09
2018-03-17T06:13:38.662Z,97922.63
2018-03-17T06:16:12.393Z,97919.06
2018-03-17T06:18:46.446Z,97914.92
2018-03-17T06:21:20.221Z,97922.63
2018-03-17T06:23:53.812Z,97906.95
2018-03-17T06:26:27.617Z,97920.42
2018-03-17T06:29:01.267Z,97918.51
2018-03-17T06:31:34.952Z,97921.09
2018-03-17T06:34:08.622Z,97916.52
2018-03-17T06:36:42.269Z,97909.25
2018-03-17T06:39:15.937Z,97909.00
2018-03-17T06:41:49.603Z,97908.80
2018-03-17T06:44:23.175Z,97905.84
2018-03-17T06:46:56.858Z,97906.63
2018-03-17T06:49:30.437Z,97915.32
2018-03-17T06:52:04.201Z,97907.47
2018-03-17T06:54:37.784Z,97909.60
2018-03-17T06:57:11.337Z,97921.03
2018-03-17T06:59:44.949Z,97924.63
2018-03-17T07:02:18.698Z,97927.72
2018-03-17T07:04:52.342Z,97915.23
2018-03-17T07:07:26.084Z,97919.33
2018-03-17T07:09:59.714Z,97924.70
2018-03-17T07:12:33.346Z,97918.16
2018-03-17T07:15:06.974Z,97930.39
2018-03-17T07:17:40.594Z,97934.69
2018-03-17T07:20:14.290Z,97922.60
2018-03-17T07:22:47.921Z,97923.51
2018-03-17T07:25:21.756Z,97913.82
2018-03-17T07:27:55.354Z,97913.73
2018-03-17T07:30:28.909Z,97915.32
2018-03-17T07:33:02.542Z,97915.95
2018-03-17T07:35:36.228Z,97922.20
2018-03-17T07:38:09.850Z,97918.61
2018-03-17T07:40:43.525Z,97922.34
2018-03-17T07:43:17.301Z,97913.06
2018-03-17T07:45:50.914Z,97915.64
2018-03-17T07:48:24.649Z,97913.33
2018-03-17T07:50:58.473Z,97911.56
2018-03-17T07:53:32.169Z,97919.45
2018-03-17T07:56:05.750Z,97931.30
2018-03-17T07:58:39.289Z,97904.53
2018-03-17T08:01:12.886Z,97907.62
2018-03-17T08:03:46.507Z,97917.53
2018-03-17T08:06:20.342Z,97925.23
2018-03-17T08:08:53.970Z,97931.97
2018-03-17T08:11:27.663Z,97930.84
2018-03-17T08:14:01.247Z,97942.15
2018-03-17T08:16:35.073Z,97923.03
2018-03-17T08:19:08.801Z,97929.36
2018-03-17T08:21:42.577Z,97934.66
2018-03-17T08:24:16.437Z,97938.02
2018-03-17T08:26:57.769Z,97938.58
2018-03-17T08:29:31.333Z,97938.47
2018-03-17T08:32:04.965Z,97946.52
2018-03-17T08:34:38.762Z,97947.14
2018-03-17T08:37:12.323Z,97958.45
2018-03-17T08:39:46.034Z,97951.41
2018-03-17T08:42:19.585Z,97947.86
2018-03-17T08:44:53.309Z,97948.28
2018-03-17T08:47:26.964Z,97942.14
2018-03-17T08:50:00.516Z,97947.48
2018-03-17T08:52:34.073Z,97951.36
2018-03-17T08:55:07.825Z,97939.94
2018-03-17T08:57:41.453Z,97947.02
2018-03-17T09:00:15.208Z,97931.81
2018-03-17T09:02:48.749Z,97937.74
2018-03-17T09:05:22.333Z,97930.83
2018-03-17T09:07:55.993Z,97928.59
2018-03-17T09:10:29.793Z,97928.49
2018-03-17T09:13:03.370Z,97924.44
2018-03-17T09:15:36.897Z,97934.54
2018-03-17T09:18:10.486Z,97928.28
2018-03-17T09:20:44.186Z,97924.85
2018-03-17T09:23:17.991Z,97925.19
2018-03-17T09:25:51.685Z,97924.85
2018-03-17T09:28:25.421Z,97918.93
2018-03-17T09:30:58.995Z,97911.77
2018-03-17T09:33:32.582Z,97909.48
2018-03-17T09:36:06.197Z,97921.76
2018-03-17T09:38:39.806Z,97920.72
2018-03-17T09:41:13.357Z,97923.22
2018-03-17T09:43:46.995Z,97917.09
2018-03-17T09:46:20.617Z,97925.60
2018-03-17T09:48:54.190Z,97920.15
2018-03-17T09:51:27.886Z,97923.18
2018-03-17T09:54:01.666Z,97923.08
2018-03-17T09:56:35.454Z,97912.39
2018-03-17T09:59:09.072Z,97924.87
2018-03-17T10:01:42.786Z,97923.34
2018-03-17T10:04:16.326Z,97936.70
2018-03-17T10:06:49.861Z,97910.88
2018-03-17T10:09:23.569Z,97915.20
2018-03-17T10:11:57.353Z,97910.45
2018-03-17T10:14:31.046Z,97914.13
2018-03-17T10:17:04.631Z,97914.00
2018-03-17T10:19:38.333Z,97914.52
2018-03-17T10:22:11.910Z,97917.12
2018-03-17T10:24:45.531Z,97913.80
2018-03-17T10:27:19.061Z,97921.04
2018-03-17T10:29:52.657Z,97919.98
2018-03-17T10:32:26.394Z,97918.66
2018-03-17T10:35:00.064Z,97927.84
2018-03-17T10:37:33.725Z,97918.25
2018-03-17T10:40:07.404Z,97928.77
2018-03-17T10:42:41.159Z,97931.36
2018-03-17T10:45:14.858Z,97924.08
2018-03-17T10:47:48.549Z,97919.55
2018-03-17T10:50:22.261Z,97922.05
2018-03-17T10:52:55.918Z,97917.75
2018-03-17T10:55:29.498Z,97917.83
2018-03-17T10:58:03.085Z,97912.20
2018-03-17T11:00:42.437Z,97917.70
2018-03-17T11:03:16.114Z,97914.56
2018-03-17T11:05:49.829Z,97924.08
2018-03-17T11:08:23.537Z,97929.20
2018-03-17T11:10:57.143Z,97926.08
2018-03-17T11:13:30.828Z,97951.73
2018-03-17T11:16:04.478Z,97917.50
2018-03-17T11:18:38.229Z,97917.55
2018-03-17T11:21:11.795Z,97917.81
2018-03-17T11:23:45.358Z,97910.21
2018-03-17T11:26:19.017Z,97910.01
2018-03-17T11:28:52.715Z,97919.91
2018-03-17T11:31:26.217Z,97901.31
2018-03-17T11:33:59.796Z,97922.25
2018-03-17T11:36:41.322Z,97930.21
2018-03-17T11:39:14.930Z,97929.53
2018-03-17T11:41:48.733Z,97934.69
2018-03-17T11:44:22.309Z,97937.08
2018-03-17T11:46:55.918Z,97939.36
2018-03-17T11:49:29.536Z,97944.67
2018-03-17T11:52:03.160Z,97927.44
2018-03-17T11:54:36.678Z,97913.95
2018-03-17T11:57:10.413Z,97918.52
2018-03-17T11:59:44.065Z,97919.33
2018-03-17T12:02:17.630Z,97916.84
2018-03-17T12:04:51.373Z,97906.05
2018-03-17T12:07:25.263Z,97919.53
2018-03-17T12:09:59.017Z,97918.96
2018-03-17T12:12:32.546Z,97927.64
2018-03-17T12:15:06.288Z,97916.09
2018-03-17T12:17:39.913Z,97919.09
2018-03-17T12:20:13.569Z,97918.13
2018-03-17T12:22:47.358Z,97925.20
2018-03-17T12:25:21.058Z,97926.45
2018-03-17T12:27:54.755Z,97923.94
2018-03-17T12:30:28.555Z,97924.72
2018-03-17T12:33:02.145Z,97912.11
2018-03-17T12:35:35.738Z,97921.16
2018-03-17T12:38:09.341Z,97909.62
2018-03-17T12:40:42.819Z,97913.24
2018-03-17T12:43:16.441Z,97907.45
2018-03-17T12:45:50.018Z,97905.78
2018-03-17T12:48:23.490Z,97903.98
2018-03-17T12:50:57.027Z,97905.39
2018-03-17T12:53:30.674Z,97910.11
2018-03-17T12:56:04.490Z,97901.20
2018-03-17T12:58:38.112Z,97900.46
2018-03-17T13:01:11.946Z,97898.23
2018-03-17T13:03:45.762Z,97901.56
2018-03-17T13:06:19.468Z,97902.51
2018-03-17T13:08:53.091Z,97909.17
2018-03-17T13:11:26.754Z,97894.08
2018-03-17T13:14:01.573Z,97908.69
2018-03-17T13:16:35.226Z,97901.56
2018-03-17T13:19:20.790Z,97897.73
2018-03-17T13:21:54.406Z,97894.31
2018-03-17T13:24:28.044Z,97883.36
2018-03-17T13:30:06.540Z,97888.83
2018-03-17T13:32:51.969Z,97887.25
2018-03-17T13:35:37.610Z,97888.09
2018-03-17T13:38:11.394Z,97884.45
2018-03-17T13:40:45.210Z,97898.29
2018-03-17T13:43:18.754Z,97882.78
2018-03-17T13:45:52.330Z,97892.78
2018-03-17T13:48:25.855Z,97895.31
2018-03-17T13:50:59.417Z,97880.52
2018-03-17T13:53:32.922Z,97888.81
2018-03-17T13:56:06.690Z,97879.38
2018-03-17T13:58:40.417Z,97880.54
2018-03-17T14:01:13.918Z,97875.41
2018-03-17T14:03:47.405Z,97882.80
2018-03-17T14:06:20.985Z,97896.55
2018-03-17T14:08:54.550Z,97884.63
2018-03-17T14:11:28.144Z,97897.21
2018-03-17T14:14:01.948Z,97888.86
2018-03-17T14:16:35.585Z,97892.56
2018-03-17T14:19:09.182Z,97891.88
2018-03-17T14:21:42.769Z,97912.03
2018-03-17T14:24:16.455Z,97901.33
2018-03-17T14:26:49.982Z,97906.22
2018-03-17T14:29:23.565Z,97894.14
2018-03-17T14:31:57.202Z,97883.30
2018-03-17T14:34:30.853Z,97891.73
2018-03-17T14:37:04.498Z,97894.70
2018-03-17T14:39:38.017Z,97899.28
2018-03-17T14:42:11.575Z,97898.64
2018-03-17T14:44:45.141Z,97891.53
2018-03-17T14:47:18.781Z,97899.25
2018-03-17T14:49:52.537Z,97890.75
2018-03-17T14:52:26.229Z,97913.02
2018-03-17T14:55:00.061Z,97896.30
2018-03-17T14:57:33.590Z,97895.69
2018-03-17T15:00:07.150Z,97897.62
2018-03-17T15:02:40.753Z,97894.16
2018-03-17T15:05:14.514Z,97911.74
2018-03-17T15:07:48.178Z,97904.47
2018-03-17T15:10:21.658Z,97907.08
2018-03-17T15:12:55.274Z,97902.72
2018-03-17T15:15:28.929Z,97904.27
2018-03-17T15:18:02.466Z,97892.77
2018-03-17T15:20:35.987Z,97887.65
2018-03-17T15:23:09.561Z,97892.55
2018-03-17T15:25:43.380Z,97902.31
2018-03-17T15:28:17.026Z,97898.48
2018-03-17T15:30:50.700Z,97903.79
2018-03-17T15:33:24.534Z,97902.80
2018-03-17T15:35:58.149Z,97891.64
2018-03-17T15:38:31.682Z,97892.63
2018-03-17T15:41:05.481Z,97889.41
2018-03-17T15:43:39.065Z,97890.20
2018-03-17T15:46:12.795Z,97894.57
2018-03-17T15:48:46.565Z,97903.34
2018-03-17T15:51:20.382Z,97898.22
2018-03-17T15:53:53.938Z,97900.00
2018-03-17T15:56:27.618Z,97902.35
2018-03-17T15:59:01.150Z,97910.72
2018-03-17T16:01:34.762Z,97899.46
2018-03-17T16:04:08.322Z,97887.94
2018-03-17T16:06:42.063Z,97893.62
2018-03-17T16:09:15.918Z,97893.05
2018-03-17T16:11:49.607Z,97896.19
2018-03-17T16:14:23.282Z,97902.23
2018-03-17T16:16:57.014Z,97901.25
2018-03-17T16:19:30.618Z,97906.29
2018-03-17T16:22:04.473Z,97905.85
2018-03-17T16:24:38.035Z,97910.53
2018-03-17T16:27:11.822Z,97916.15
2018-03-17T16:29:45.454Z,97910.13
2018-03-17T16:32:19.316Z,97919.55
2018-03-17T16:34:53.102Z,97918.22
2018-03-17T16:37:26.891Z,97928.22
2018-03-17T16:40:00.614Z,97916.30
2018-03-17T16:42:34.282Z,97919.36
2018-03-17T16:45:07.954Z,97917.88
2018-03-17T16:47:41.775Z,97921.48
2018-03-17T16:50:15.826Z,97925.50
2018-03-17T16:52:49.395Z,97923.59
2018-03-17T16:55:23.014Z,97935.81
2018-03-17T16:57:56.771Z,97939.42
2018-03-17T17:00:30.511Z,97948.84
2018-03-17T17:03:04.457Z,97944.05
2018-03-17T17:05:38.314Z,97950.36
2018-03-17T17:08:12.005Z,97942.20
2018-03-17T17:10:45.909Z,97957.10
2018-03-17T17:13:19.813Z,97958.61
2018-03-17T17:15:53.626Z,97959.29
2018-03-17T17:18:27.440Z,97971.45
2018-03-17T17:21:01.533Z,97970.55
2018-03-17T17:23:35.296Z,97977.31
2018-03-17T17:26:09.139Z,97976.47
2018-03-17T17:28:42.778Z,97984.66
2018-03-17T17:31:16.646Z,97976.92
2018-03-17T17:33:50.378Z,97986.48
2018-03-17T17:36:24.289Z,97992.48
2018-03-17T17:38:57.936Z,97989.58
2018-03-17T17:41:31.481Z,97989.50
2018-03-17T17:44:05.209Z,97987.61
2018-03-17T17:46:39.004Z,97999.88
2018-03-17T17:49:12.692Z,97986.77
2018-03-17T17:51:46.502Z,97986.20
2018-03-17T17:54:20.305Z,97990.84
2018-03-17T17:56:54.087Z,97998.72
2018-03-17T17:59:27.775Z,97997.34
2018-03-17T18:02:01.464Z,98004.94
2018-03-17T18:04:35.156Z,97997.67
2018-03-17T18:07:08.978Z,98006.67
2018-03-17T18:09:42.755Z,98002.78
2018-03-17T18:12:16.385Z,98005.16
2018-03-17T18:14:50.117Z,98005.71
2018-03-17T18:17:23.777Z,98017.98
2018-03-17T18:19:57.975Z,98016.28
2018-03-17T18:22:31.611Z,98007.00
2018-03-17T18:25:05.475Z,98012.99
2018-03-17T18:27:39.273Z,98007.64
2018-03-17T18:30:12.940Z,98010.09
2018-03-17T18:32:46.558Z,98005.59
2018-03-17T18:35:20.187Z,98004.39
2018-03-17T18:37:53.841Z,98004.51
2018-03-17T18:40:27.580Z,98008.20
2018-03-17T18:43:01.280Z,98007.05
2018-03-17T18:45:34.982Z,98013.40
2018-03-17T18:48:08.744Z,98010.83
2018-03-17T18:50:48.627Z,98025.74
2018-03-17T18:53:22.642Z,98007.20
2018-03-17T18:55:56.356Z,98009.53
2018-03-17T18:58:29.959Z,98025.10
2018-03-17T19:01:03.760Z,98025.54
2018-03-17T19:03:37.485Z,98014.97
2018-03-17T19:06:11.250Z,98016.97
2018-03-17T19:08:45.101Z,98009.05
2018-03-17T19:11:18.764Z,98015.85
2018-03-17T19:13:52.795Z,98019.71
2018-03-17T19:16:26.503Z,98030.24
2018-03-17T19:19:00.257Z,98034.38
2018-03-17T19:21:33.826Z,98027.27
2018-03-17T19:24:07.462Z,98035.03
2018-03-17T19:26:41.239Z,98035.23
2018-03-17T19:29:14.815Z,98046.65
2018-03-17T19:31:48.578Z,98043.35
2018-03-17T19:34:22.429Z,98046.08
2018-03-17T19:36:56.186Z,98052.36
2018-03-17T19:39:29.770Z,98046.08
2018-03-17T19:42:03.481Z,98047.05
2018-03-17T19:44:37.075Z,98049.46
2018-03-17T19:47:10.824Z,98046.01
2018-03-17T19:49:44.579Z,98055.17
2018-03-17T19:52:18.295Z,98047.94
2018-03-17T19:54:51.974Z,98055.45
2018-03-17T19:57:25.687Z,98049.63
2018-03-17T19:59:59.406Z,98051.23
2018-03-17T20:02:33.059Z,98058.23
2018-03-17T20:05:06.736Z,98057.87
2018-03-17T20:07:40.305Z,98069.33
2018-03-17T20:10:13.911Z,98067.20
2018-03-17T20:12:47.544Z,98068.97
2018-03-17T20:15:21.291Z,98066.11
2018-03-17T20:17:55.038Z,98067.28
2018-03-17T20:20:28.687Z,98082.56
2018-03-17T20:23:02.378Z,98068.80
2018-03-17T20:25:36.062Z,98070.41
2018-03-17T20:28:09.814Z,98077.69
2018-03-17T20:30:43.556Z,98074.67
2018-03-17T20:33:17.123Z,98076.33
2018-03-17T20:35:50.818Z,98073.52
2018-03-17T20:38:24.560Z,98069.65
2018-03-17T20:40:58.409Z,98064.50
2018-03-17T20:43:31.995Z,98068.77
2018-03-17T20:46:05.737Z,98075.68
2018-03-17T20:48:39.474Z,98069.17
2018-03-17T20:51:13.082Z,98074.47
2018-03-17T20:53:46.839Z,98064.27
2018-03-17T20:56:20.472Z,98063.38
2018-03-17T20:58:54.303Z,98072.22
2018-03-17T21:01:28.076Z,98067.48
2018-03-17T21:04:01.750Z,98073.99
2018-03-17T21:06:35.654Z,98067.67
2018-03-17T21:09:09.551Z,98069.89
2018-03-17T21:11:43.309Z,98083.16
2018-03-17T21:14:16.959Z,98083.88
2018-03-17T21:16:50.710Z,98080.87
2018-03-17T21:19:24.428Z,98080.59
2018-03-17T21:21:58.227Z,98077.69
2018-03-17T21:24:31.991Z,98082.02
2018-03-17T21:27:05.646Z,98083.35
2018-03-17T21:29:39.375Z,98085.33
2018-03-17T21:32:13.039Z,98085.66
2018-03-17T21:34:46.713Z,98081.26
2018-03-17T21:37:20.451Z,98078.20
2018-03-17T21:39:54.098Z,98075.59
2018-03-17T21:42:27.798Z,98080.61
2018-03-17T21:45:01.563Z,98080.55
2018-03-17T21:47:35.232Z,98072.70
2018-03-17T21:50:09.130Z,98076.84
2018-03-17T21:52:42.948Z,98071.09
2018-03-17T21:55:16.764Z,98081.55
2018-03-17T21:57:50.614Z,98076.95
2018-03-17T22:00:24.698Z,98069.27
2018-03-17T22:02:58.387Z,98078.41
2018-03-17T22:05:32.010Z,98071.72
2018-03-17T22:08:05.635Z,98071.69
2018-03-17T22:10:39.262Z,98078.60
2018-03-17T22:13:13.020Z,98072.91
2018-03-17T22:15:46.755Z,98082.67
2018-03-17T22:18:20.338Z,98088.05
2018-03-17T22:20:54.075Z,98077.48
2018-03-17T22:23:27.619Z,98081.02
2018-03-17T22:26:01.436Z,98080.81
2018-03-17T22:28:35.282Z,98073.26
2018-03-17T22:31:09.035Z,98074.63
2018-03-17T22:33:42.861Z,98074.70
2018-03-17T22:36:16.466Z,98072.63
2018-03-17T22:38:50.215Z,98073.26
2018-03-17T22:41:23.787Z,98073.45
2018-03-17T22:43:57.559Z,98064.36
2018-03-17T22:46:31.147Z,98075.30
2018-03-17T22:49:04.951Z,98067.66
2018-03-17T22:51:38.787Z,98074.57
2018-03-17T22:54:12.550Z,98077.95
2018-03-17T22:56:46.204Z,98078.56
2018-03-17T22:59:19.903Z,98078.92
2018-03-17T23:01:53.571Z,98077.22
2018-03-17T23:04:27.350Z,98082.86
2018-03-17T23:07:01.062Z,98082.73
2018-03-17T23:09:34.658Z,98075.66
2018-03-17T23:12:08.381Z,98081.17
2018-03-17T23:14:42.102Z,98076.34
2018-03-17T23:17:15.702Z,98082.85
2018-03-17T23:19:49.466Z,98083.22
2018-03-17T23:22:23.063Z,98082.70
2018-03-17T23:24:56.858Z,98086.44
2018-03-17T23:27:30.482Z,98088.44
2018-03-17T23:30:04.175Z,98083.09
2018-03-17T23:32:37.775Z,98084.22
2018-03-17T23:35:11.536Z,98069.25
2018-03-17T23:37:45.302Z,98072.35
2018-03-17T23:40:19.053Z,98070.05
2018-03-17T23:42:52.658Z,98070.94
2018-03-17T23:45:26.399Z,98071.47
2018-03-17T23:48:00.047Z,98068.58
2018-03-17T23:50:33.787Z,98066.00
2018-03-17T23:53:07.403Z,98065.59
2018-03-17T23:55:41.006Z,98076.30
2018-03-17T23:58:14.622Z,98076.73
